Time;durP1;ratioP1;P1;durP2;ratioP2;P2;SDS_P1;SDS_P2;PMS_P1;PMS_P2;Temp;Humidity;BMP_temperature;BMP_pressure;BME280_temperature;BME280_humidity;BME280_pressure;Samples;Min_cycle;Max_cycle;Signal;HPM_P1;HPM_P2
2021/06/09 00:02:18;;;;;;;19.98;14.05;;;18.30;99.90;;;;;;5039505;28;20240;-77
2021/06/09 00:04:45;;;;;;;20.50;14.00;;;18.40;99.90;;;;;;5037662;28;20291;-78
2021/06/09 00:07:12;;;;;;;19.83;13.30;;;18.30;99.90;;;;;;5040162;28;20212;-79
2021/06/09 00:09:38;;;;;;;18.38;12.85;;;18.30;99.90;;;;;;5041786;28;20235;-78
2021/06/09 00:12:08;;;;;;;20.27;14.05;;;18.40;99.90;;;;;;5045547;28;20270;-76
2021/06/09 00:14:35;;;;;;;21.45;13.95;;;18.40;99.90;;;;;;5040635;28;20215;-77
2021/06/09 00:17:01;;;;;;;17.25;13.52;;;18.40;99.90;;;;;;5040025;28;20271;-77
2021/06/09 00:19:28;;;;;;;20.20;12.95;;;18.40;99.90;;;;;;5037967;28;20567;-76
2021/06/09 00:21:55;;;;;;;21.67;14.35;;;18.40;99.90;;;;;;5040166;28;20207;-76
2021/06/09 00:24:23;;;;;;;19.45;12.95;;;18.30;99.90;;;;;;5044406;28;20320;-77
2021/06/09 00:26:51;;;;;;;19.95;14.23;;;18.20;99.90;;;;;;5039786;28;20196;-77
2021/06/09 00:29:19;;;;;;;20.75;13.85;;;18.20;99.90;;;;;;5039464;28;20586;-78
2021/06/09 00:31:45;;;;;;;21.83;14.23;;;18.30;99.90;;;;;;5037348;28;20246;-77
2021/06/09 00:34:12;;;;;;;23.58;14.88;;;18.20;99.90;;;;;;5041500;28;20239;-76
2021/06/09 00:36:38;;;;;;;21.70;13.82;;;18.20;99.90;;;;;;5043433;28;20243;-77
2021/06/09 00:39:05;;;;;;;19.13;13.57;;;18.20;99.90;;;;;;5043099;28;20291;-76
2021/06/09 00:41:32;;;;;;;21.25;13.82;;;18.10;99.90;;;;;;5042143;28;20242;-77
2021/06/09 00:43:59;;;;;;;20.90;13.68;;;18.00;99.90;;;;;;5045044;28;20251;-78
2021/06/09 00:46:33;;;;;;;21.48;14.45;;;17.80;99.90;;;;;;5037768;28;20231;-76
2021/06/09 00:48:59;;;;;;;21.88;14.00;;;17.70;99.90;;;;;;5034382;28;20260;-76
2021/06/09 00:51:26;;;;;;;21.80;14.27;;;17.80;99.90;;;;;;5034470;28;20273;-77
2021/06/09 00:53:54;;;;;;;22.25;13.90;;;17.80;99.90;;;;;;5036726;28;20226;-76
2021/06/09 00:56:22;;;;;;;20.50;14.75;;;17.90;99.90;;;;;;5038513;28;20203;-77
2021/06/09 00:58:50;;;;;;;20.80;14.23;;;17.90;99.90;;;;;;5034802;28;20291;-76
2021/06/09 01:01:20;;;;;;;21.73;13.80;;;18.00;99.90;;;;;;5033891;28;20204;-76
2021/06/09 01:03:48;;;;;;;23.90;14.52;;;18.00;99.90;;;;;;5034095;28;20657;-76
2021/06/09 01:06:15;;;;;;;23.13;15.07;;;18.10;99.90;;;;;;5034699;28;20211;-76
2021/06/09 01:08:43;;;;;;;20.05;13.65;;;18.10;99.90;;;;;;5034647;28;20295;-75
2021/06/09 01:11:12;;;;;;;19.52;13.50;;;18.10;99.90;;;;;;5034321;28;20312;-77
2021/06/09 01:13:38;;;;;;;21.17;13.70;;;18.20;99.90;;;;;;5033897;28;20362;-75
2021/06/09 01:16:04;;;;;;;20.73;14.38;;;18.20;99.90;;;;;;5035464;28;20227;-76
2021/06/09 01:18:31;;;;;;;20.60;13.60;;;18.20;99.90;;;;;;5036913;28;20204;-76
2021/06/09 01:20:59;;;;;;;20.02;13.50;;;18.20;99.90;;;;;;5037728;28;20282;-76
2021/06/09 01:23:28;;;;;;;19.38;13.60;;;18.10;99.90;;;;;;5036663;28;20247;-77
2021/06/09 01:25:55;;;;;;;22.70;14.35;;;18.00;99.90;;;;;;5036900;28;20208;-77
2021/06/09 01:28:22;;;;;;;24.48;13.85;;;18.10;99.90;;;;;;5036688;28;20208;-76
2021/06/09 01:30:49;;;;;;;20.30;13.82;;;18.20;99.90;;;;;;5036592;28;20874;-78
2021/06/09 01:33:17;;;;;;;21.25;13.75;;;18.20;99.90;;;;;;5046337;28;20298;-78
2021/06/09 01:35:43;;;;;;;20.15;13.43;;;18.20;99.90;;;;;;5048161;28;20227;-79
2021/06/09 01:38:10;;;;;;;21.33;13.93;;;18.10;99.90;;;;;;5047525;28;20228;-78
2021/06/09 01:40:41;;;;;;;19.17;12.90;;;17.90;99.90;;;;;;5046088;28;20207;-76
2021/06/09 01:43:07;;;;;;;19.67;13.35;;;17.80;99.90;;;;;;5046028;28;20282;-78
2021/06/09 01:45:35;;;;;;;20.83;13.55;;;17.80;99.90;;;;;;5048538;28;20208;-77
2021/06/09 01:48:02;;;;;;;22.70;13.88;;;17.80;99.90;;;;;;5045156;28;20626;-77
2021/06/09 01:50:29;;;;;;;18.33;12.93;;;17.90;99.90;;;;;;5046002;28;20235;-80
2021/06/09 01:52:57;;;;;;;20.83;14.05;;;18.00;99.90;;;;;;5045775;28;20250;-77
2021/06/09 01:55:28;;;;;;;18.70;13.90;;;18.00;99.90;;;;;;5046157;28;20268;-77
2021/06/09 01:57:55;;;;;;;20.70;13.73;;;18.10;99.90;;;;;;5045899;28;20208;-79
2021/06/09 02:00:25;;;;;;;21.08;13.55;;;18.10;99.90;;;;;;5045229;28;20242;-77
2021/06/09 02:02:53;;;;;;;20.52;13.63;;;18.10;99.90;;;;;;5036248;28;20267;-76
2021/06/09 02:05:20;;;;;;;20.08;14.00;;;18.20;99.90;;;;;;5035024;28;20698;-76
2021/06/09 02:07:46;;;;;;;22.60;12.88;;;18.20;99.90;;;;;;5035246;28;20208;-76
2021/06/09 02:10:15;;;;;;;21.58;13.32;;;18.20;99.90;;;;;;5034527;28;20295;-77
2021/06/09 02:12:44;;;;;;;20.40;13.50;;;18.30;99.90;;;;;;5034659;28;20307;-76
2021/06/09 02:15:13;;;;;;;20.33;13.32;;;18.30;99.90;;;;;;5034588;28;20204;-76
2021/06/09 02:17:42;;;;;;;18.63;12.80;;;18.30;99.90;;;;;;5034601;28;20295;-76
2021/06/09 02:20:09;;;;;;;18.33;12.40;;;18.30;99.90;;;;;;5034811;28;20555;-77
2021/06/09 02:22:36;;;;;;;18.83;12.75;;;18.20;99.90;;;;;;5034550;28;20255;-76
2021/06/09 02:25:04;;;;;;;19.45;13.20;;;18.30;99.90;;;;;;5034421;28;20250;-77
2021/06/09 02:27:33;;;;;;;18.98;13.40;;;18.30;99.90;;;;;;5034877;28;20226;-77
2021/06/09 02:29:59;;;;;;;20.13;13.70;;;18.30;99.90;;;;;;5034915;28;20200;-77
2021/06/09 02:32:27;;;;;;;19.50;14.00;;;18.30;99.90;;;;;;5034158;28;20327;-76
2021/06/09 02:34:53;;;;;;;17.13;12.93;;;18.30;99.90;;;;;;5035622;28;20246;-77
2021/06/09 02:37:21;;;;;;;21.70;13.77;;;18.30;99.90;;;;;;5034705;28;20351;-77
2021/06/09 02:39:48;;;;;;;21.63;13.88;;;18.20;99.90;;;;;;5034741;28;20554;-77
2021/06/09 02:42:18;;;;;;;18.92;12.77;;;18.30;99.90;;;;;;5034896;28;20687;-76
2021/06/09 02:44:44;;;;;;;18.77;12.10;;;18.20;99.90;;;;;;5037241;28;20212;-76
2021/06/09 02:47:11;;;;;;;21.88;12.75;;;18.10;99.90;;;;;;5034847;28;20616;-77
2021/06/09 02:49:41;;;;;;;20.85;13.35;;;18.00;99.90;;;;;;5034536;28;20294;-77
2021/06/09 02:52:12;;;;;;;22.70;14.43;;;17.70;99.90;;;;;;5033846;28;20235;-77
2021/06/09 02:54:46;;;;;;;23.95;14.27;;;17.50;99.90;;;;;;5034365;28;20576;-77
2021/06/09 02:57:29;;;;;;;25.85;15.82;;;17.50;99.90;;;;;;5034105;28;20195;-77
2021/06/09 03:00:02;;;;;;;23.48;15.57;;;17.50;99.90;;;;;;5033523;28;20184;-76
2021/06/09 03:02:39;;;;;;;21.20;13.55;;;17.60;99.90;;;;;;5033683;28;20228;-76
2021/06/09 03:05:18;;;;;;;21.67;14.10;;;17.60;99.90;;;;;;5034033;28;20562;-77
2021/06/09 03:07:56;;;;;;;24.20;14.80;;;17.50;99.90;;;;;;5034063;28;20208;-77
2021/06/09 03:10:32;;;;;;;19.70;13.73;;;17.40;99.90;;;;;;5033689;28;20547;-76
2021/06/09 03:13:06;;;;;;;23.80;13.85;;;17.30;99.90;;;;;;5033610;28;20310;-77
2021/06/09 03:15:39;;;;;;;20.58;12.88;;;17.20;99.90;;;;;;5033829;28;20213;-77
2021/06/09 03:18:10;;;;;;;22.73;14.35;;;17.10;99.90;;;;;;5034238;28;20208;-77
2021/06/09 03:20:46;;;;;;;21.15;14.02;;;17.00;99.90;;;;;;5033728;28;20196;-77
2021/06/09 03:23:18;;;;;;;19.58;13.77;;;17.00;99.90;;;;;;5033566;28;20680;-77
2021/06/09 03:25:49;;;;;;;16.45;12.25;;;17.10;99.90;;;;;;5034052;28;20352;-77
2021/06/09 03:28:20;;;;;;;20.98;13.00;;;17.10;99.90;;;;;;5033961;28;20193;-76
2021/06/09 03:30:53;;;;;;;21.13;13.10;;;17.10;99.90;;;;;;5033948;28;20184;-77
2021/06/09 03:33:23;;;;;;;23.40;14.05;;;17.30;99.90;;;;;;5034313;28;20720;-77
2021/06/09 03:35:55;;;;;;;19.15;12.20;;;17.40;99.90;;;;;;5033831;28;20188;-77
2021/06/09 03:38:27;;;;;;;20.20;12.95;;;17.60;99.90;;;;;;5033940;28;20724;-76
2021/06/09 03:40:58;;;;;;;20.80;12.85;;;17.70;99.90;;;;;;5033522;28;20677;-77
2021/06/09 03:43:26;;;;;;;21.30;13.27;;;17.70;99.90;;;;;;5033502;28;20227;-77
2021/06/09 03:45:54;;;;;;;22.92;13.20;;;17.70;99.90;;;;;;5034302;28;20295;-77
2021/06/09 03:48:24;;;;;;;20.05;13.05;;;17.70;99.90;;;;;;5033589;28;20746;-76
2021/06/09 03:50:54;;;;;;;21.10;13.10;;;17.80;99.90;;;;;;5033708;28;20551;-77
2021/06/09 03:53:22;;;;;;;23.13;13.27;;;17.80;99.90;;;;;;5034367;28;20326;-77
2021/06/09 03:55:49;;;;;;;19.48;12.95;;;17.90;99.90;;;;;;5034284;28;20210;-77
2021/06/09 03:58:17;;;;;;;19.70;11.57;;;17.80;99.90;;;;;;5034145;28;20613;-76
2021/06/09 04:00:46;;;;;;;17.42;11.38;;;17.70;99.90;;;;;;5033276;28;20211;-76
2021/06/09 04:03:13;;;;;;;17.58;12.45;;;17.80;99.90;;;;;;5033327;28;20646;-76
2021/06/09 04:05:43;;;;;;;17.23;12.93;;;17.70;99.90;;;;;;5033219;28;20214;-76
2021/06/09 04:08:12;;;;;;;14.05;10.75;;;17.60;99.90;;;;;;5034099;28;20216;-77
2021/06/09 04:10:43;;;;;;;21.35;13.80;;;17.60;99.90;;;;;;5033573;28;20200;-76
2021/06/09 04:13:09;;;;;;;17.40;12.73;;;17.50;99.90;;;;;;5033267;28;20579;-76
2021/06/09 04:15:37;;;;;;;19.73;12.77;;;17.40;99.90;;;;;;5035791;28;20200;-77
2021/06/09 04:18:05;;;;;;;20.90;12.50;;;17.40;99.90;;;;;;5037129;28;20214;-76
2021/06/09 04:20:32;;;;;;;18.58;13.13;;;17.40;99.90;;;;;;5037078;28;20738;-77
2021/06/09 04:22:59;;;;;;;19.58;12.13;;;17.50;99.90;;;;;;5036608;28;20650;-77
2021/06/09 04:25:27;;;;;;;20.70;12.05;;;17.60;99.90;;;;;;5037026;28;20204;-77
2021/06/09 04:27:54;;;;;;;17.73;12.05;;;17.70;99.90;;;;;;5036878;28;20254;-77
2021/06/09 04:30:22;;;;;;;19.58;12.50;;;17.60;99.90;;;;;;5036962;28;20200;-77
2021/06/09 04:32:54;;;;;;;20.75;11.52;;;17.70;99.90;;;;;;5036971;28;20315;-77
2021/06/09 04:35:21;;;;;;;18.92;13.18;;;17.70;99.90;;;;;;5037236;28;20669;-77
2021/06/09 04:37:48;;;;;;;22.27;13.23;;;17.60;99.90;;;;;;5036820;28;20214;-77
2021/06/09 04:40:16;;;;;;;24.23;15.77;;;17.60;99.90;;;;;;5036837;28;20663;-76
2021/06/09 04:42:46;;;;;;;22.13;14.90;;;17.40;99.90;;;;;;5037060;28;20259;-77
2021/06/09 04:45:13;;;;;;;19.02;13.20;;;17.40;99.90;;;;;;5037530;28;20291;-77
2021/06/09 04:47:40;;;;;;;19.00;13.10;;;17.40;99.90;;;;;;5036769;28;20239;-77
2021/06/09 04:50:07;;;;;;;21.67;12.68;;;17.40;99.90;;;;;;5036863;28;20235;-77
2021/06/09 04:52:34;;;;;;;18.48;12.70;;;17.40;99.90;;;;;;5037292;28;20239;-77
2021/06/09 04:55:01;;;;;;;17.98;12.70;;;17.40;99.90;;;;;;5036626;28;20290;-76
2021/06/09 04:57:27;;;;;;;23.10;12.98;;;17.40;99.90;;;;;;5036578;28;20208;-77
2021/06/09 04:59:55;;;;;;;21.10;13.40;;;17.40;99.90;;;;;;5036232;28;20258;-77
2021/06/09 05:02:21;;;;;;;18.80;12.77;;;17.40;99.90;;;;;;5036422;28;20260;-76
2021/06/09 05:04:47;;;;;;;21.15;13.35;;;17.40;99.90;;;;;;5036409;28;20238;-77
2021/06/09 05:07:14;;;;;;;22.10;13.65;;;17.30;99.90;;;;;;5035718;28;20227;-77
2021/06/09 05:09:40;;;;;;;19.73;12.50;;;17.30;99.90;;;;;;5035853;28;20208;-76
2021/06/09 05:12:17;;;;;;;21.15;12.55;;;17.30;99.90;;;;;;5035627;28;20689;-77
2021/06/09 05:14:48;;;;;;;18.67;12.52;;;17.30;99.90;;;;;;5036037;28;20615;-77
2021/06/09 05:17:19;;;;;;;17.75;12.32;;;17.40;99.90;;;;;;5036091;28;20721;-77
2021/06/09 05:19:48;;;;;;;19.98;12.07;;;17.50;99.90;;;;;;5035668;28;20281;-76
2021/06/09 05:22:22;;;;;;;18.50;12.40;;;17.50;99.90;;;;;;5035600;28;20239;-76
2021/06/09 05:24:49;;;;;;;22.50;13.50;;;17.60;99.90;;;;;;5035548;28;20631;-77
2021/06/09 05:27:20;;;;;;;20.83;13.32;;;17.60;99.90;;;;;;5035808;28;20298;-77
2021/06/09 05:29:47;;;;;;;21.02;13.13;;;17.60;99.90;;;;;;5036244;28;20204;-77
2021/06/09 05:32:16;;;;;;;18.10;12.18;;;17.70;99.90;;;;;;5035408;28;20242;-77
2021/06/09 05:34:44;;;;;;;22.15;13.32;;;17.80;99.90;;;;;;5035758;28;20295;-77
2021/06/09 05:37:11;;;;;;;19.00;12.80;;;17.90;99.90;;;;;;5035648;28;20307;-77
2021/06/09 05:39:39;;;;;;;19.67;12.20;;;17.90;99.90;;;;;;5036079;28;20204;-77
2021/06/09 05:42:10;;;;;;;21.80;12.70;;;17.90;99.90;;;;;;5036154;28;20311;-77
2021/06/09 05:44:36;;;;;;;20.38;13.90;;;18.10;99.90;;;;;;5035498;28;20228;-77
2021/06/09 05:47:04;;;;;;;20.33;12.45;;;18.20;99.90;;;;;;5035578;28;20204;-77
2021/06/09 05:49:32;;;;;;;19.00;13.02;;;18.30;99.90;;;;;;5035189;28;20211;-77
2021/06/09 05:51:58;;;;;;;16.73;11.90;;;18.50;99.90;;;;;;5035176;28;20292;-76
2021/06/09 05:54:25;;;;;;;19.33;13.30;;;18.60;99.90;;;;;;5035538;28;20502;-77
2021/06/09 05:56:51;;;;;;;18.45;12.30;;;18.60;99.90;;;;;;5035150;28;20215;-77
2021/06/09 05:59:18;;;;;;;22.80;13.10;;;18.50;99.90;;;;;;5035044;28;20200;-76
2021/06/09 06:01:45;;;;;;;16.52;11.45;;;18.50;99.90;;;;;;5034797;28;20339;-77
2021/06/09 06:04:12;;;;;;;19.15;12.18;;;18.50;99.90;;;;;;5035316;28;20228;-76
2021/06/09 06:06:40;;;;;;;21.92;13.05;;;18.50;99.90;;;;;;5035064;28;20312;-76
2021/06/09 06:09:07;;;;;;;18.98;11.95;;;18.60;99.90;;;;;;5035411;28;20246;-77
2021/06/09 06:11:35;;;;;;;19.48;12.50;;;18.60;99.90;;;;;;5034588;28;20747;-77
2021/06/09 06:14:05;;;;;;;17.05;11.77;;;18.60;99.90;;;;;;5034989;28;20312;-77
2021/06/09 06:16:32;;;;;;;18.35;11.23;;;18.60;99.90;;;;;;5035168;28;20208;-76
2021/06/09 06:18:58;;;;;;;15.13;11.50;;;18.60;99.90;;;;;;5034791;28;20226;-77
2021/06/09 06:21:24;;;;;;;17.17;11.70;;;18.60;99.90;;;;;;5034522;28;20203;-76
2021/06/09 06:23:54;;;;;;;19.55;11.52;;;18.80;99.90;;;;;;5034793;28;20315;-77
2021/06/09 06:26:21;;;;;;;16.60;11.53;;;18.90;99.90;;;;;;5035163;28;20258;-77
2021/06/09 06:28:49;;;;;;;16.20;11.15;;;19.00;99.90;;;;;;5034857;28;20529;-77
2021/06/09 06:31:20;;;;;;;20.20;11.73;;;19.00;99.90;;;;;;5034421;28;20667;-77
2021/06/09 06:33:48;;;;;;;17.75;11.73;;;19.10;99.90;;;;;;5034710;28;20483;-77
2021/06/09 06:36:17;;;;;;;14.25;9.75;;;19.20;99.90;;;;;;5034525;28;20200;-77
2021/06/09 06:38:45;;;;;;;17.10;11.50;;;19.20;99.90;;;;;;5034131;28;20204;-77
2021/06/09 06:41:14;;;;;;;14.80;11.43;;;19.40;99.90;;;;;;5034171;28;20514;-77
2021/06/09 06:43:41;;;;;;;15.87;11.07;;;19.50;99.90;;;;;;5034148;28;20575;-77
2021/06/09 06:46:16;;;;;;;17.13;11.10;;;19.60;99.90;;;;;;5034351;28;20554;-77
2021/06/09 06:48:46;;;;;;;17.10;12.10;;;19.80;99.90;;;;;;5034402;28;20865;-77
2021/06/09 06:51:14;;;;;;;14.20;10.60;;;19.90;99.90;;;;;;5033610;28;20962;-77
2021/06/09 06:53:42;;;;;;;17.20;11.97;;;20.00;99.90;;;;;;5033770;28;21023;-77
2021/06/09 06:56:09;;;;;;;18.07;12.30;;;20.00;99.90;;;;;;5033940;28;20921;-77
2021/06/09 06:58:38;;;;;;;18.67;12.40;;;20.00;99.90;;;;;;5033909;28;21007;-77
2021/06/09 07:01:05;;;;;;;15.67;11.67;;;19.90;99.90;;;;;;5033817;28;20452;-77
2021/06/09 07:03:35;;;;;;;18.90;12.30;;;20.00;99.90;;;;;;5034468;28;20993;-77
2021/06/09 07:06:02;;;;;;;20.80;11.70;;;20.10;99.90;;;;;;5034733;28;20460;-77
2021/06/09 07:08:29;;;;;;;16.13;11.10;;;20.00;99.90;;;;;;5034102;28;20444;-77
2021/06/09 07:10:57;;;;;;;17.90;12.60;;;20.20;99.90;;;;;;5034132;28;20447;-77
2021/06/09 07:13:24;;;;;;;18.30;12.33;;;20.30;99.90;;;;;;5034539;28;20469;-77
2021/06/09 07:15:55;;;;;;;18.37;12.47;;;20.40;99.90;;;;;;5034436;28;20996;-77
2021/06/09 07:18:23;;;;;;;16.80;12.30;;;20.50;99.90;;;;;;5034201;28;20490;-77
2021/06/09 07:20:50;;;;;;;17.23;11.83;;;20.40;99.90;;;;;;5033763;28;20441;-77
2021/06/09 07:23:17;;;;;;;19.83;13.40;;;20.40;99.90;;;;;;5034180;28;20509;-76
2021/06/09 07:25:44;;;;;;;17.00;12.07;;;20.40;99.90;;;;;;5034345;28;20920;-76
2021/06/09 07:28:11;;;;;;;15.93;11.50;;;20.60;99.90;;;;;;5034692;28;20935;-77
2021/06/09 07:30:39;;;;;;;16.70;12.17;;;20.90;99.90;;;;;;5034921;28;20538;-77
2021/06/09 07:33:07;;;;;;;17.37;12.60;;;20.90;99.90;;;;;;5033614;28;20571;-77
2021/06/09 07:35:35;;;;;;;19.53;12.80;;;21.00;99.90;;;;;;5039024;28;20536;-77
2021/06/09 07:38:05;;;;;;;17.17;12.10;;;21.00;99.90;;;;;;5037938;28;20540;-77
2021/06/09 07:40:35;;;;;;;16.77;11.80;;;20.90;99.90;;;;;;5036534;28;20540;-77
2021/06/09 07:43:05;;;;;;;16.37;12.17;;;21.00;99.90;;;;;;5035698;28;20563;-77
2021/06/09 07:45:33;;;;;;;17.27;12.30;;;21.20;99.90;;;;;;5034108;28;20529;-80
2021/06/09 07:48:01;;;;;;;17.00;12.40;;;21.30;99.90;;;;;;5034350;28;20542;-80
2021/06/09 07:50:40;;;;;;;17.63;12.37;;;21.50;99.90;;;;;;5038095;28;21021;-80
2021/06/09 07:53:09;;;;;;;17.87;12.10;;;21.80;99.90;;;;;;5038292;28;20554;-80
2021/06/09 07:55:37;;;;;;;16.87;12.70;;;21.90;99.90;;;;;;5037976;28;20447;-80
2021/06/09 07:58:04;;;;;;;21.40;13.93;;;22.20;99.90;;;;;;5037630;28;20481;-79
2021/06/09 08:00:32;;;;;;;15.87;11.87;;;22.20;99.90;;;;;;5038043;28;20455;-79
2021/06/09 08:02:58;;;;;;;22.33;14.90;;;22.20;99.90;;;;;;5037708;28;20477;-80
2021/06/09 08:05:26;;;;;;;20.87;13.50;;;22.20;99.90;;;;;;5038122;28;20514;-80
2021/06/09 08:07:54;;;;;;;20.97;14.70;;;22.30;99.90;;;;;;5037832;28;20821;-80
2021/06/09 08:10:22;;;;;;;17.20;12.43;;;22.50;99.90;;;;;;5037093;28;20545;-80
2021/06/09 08:12:51;;;;;;;17.70;12.37;;;22.60;99.90;;;;;;5037831;28;20889;-81
2021/06/09 08:15:18;;;;;;;20.57;15.30;;;22.80;99.90;;;;;;5037531;28;20439;-80
2021/06/09 08:17:45;;;;;;;19.63;14.80;;;23.30;99.90;;;;;;5036798;28;20483;-80
2021/06/09 08:20:14;;;;;;;16.67;13.93;;;23.90;99.90;;;;;;5037032;28;20540;-80
2021/06/09 08:22:44;;;;;;;16.93;13.30;;;24.30;99.90;;;;;;5037072;28;20564;-79
2021/06/09 08:25:14;;;;;;;17.50;13.57;;;24.40;99.90;;;;;;5037199;28;20512;-80
2021/06/09 08:27:40;;;;;;;19.23;14.17;;;24.50;99.90;;;;;;5037270;28;20533;-80
2021/06/09 08:30:08;;;;;;;17.07;12.70;;;24.20;99.90;;;;;;5037099;28;20548;-81
2021/06/09 08:32:35;;;;;;;19.17;14.47;;;23.80;99.90;;;;;;5036375;28;20567;-76
2021/06/09 08:35:02;;;;;;;19.50;13.43;;;23.90;99.90;;;;;;5035035;28;20957;-76
2021/06/09 08:37:28;;;;;;;17.57;12.53;;;24.20;99.90;;;;;;5037607;28;20537;-73
2021/06/09 08:39:55;;;;;;;15.43;11.77;;;25.00;99.90;;;;;;5036938;28;20442;-73
2021/06/09 08:42:25;;;;;;;19.50;13.20;;;25.70;99.90;;;;;;5036199;28;20563;-74
2021/06/09 08:44:52;;;;;;;16.53;12.53;;;26.20;99.90;;;;;;5037753;28;20568;-74
2021/06/09 08:47:19;;;;;;;18.10;12.77;;;26.00;99.90;;;;;;5037252;28;20442;-74
2021/06/09 08:49:45;;;;;;;14.10;12.40;;;26.00;99.90;;;;;;5036759;28;20457;-74
2021/06/09 08:52:13;;;;;;;16.77;13.47;;;25.80;99.90;;;;;;5036007;28;20474;-73
2021/06/09 08:54:42;;;;;;;15.90;13.33;;;26.00;99.90;;;;;;5036317;28;20445;-74
2021/06/09 08:57:10;;;;;;;17.50;12.80;;;26.20;99.90;;;;;;5036494;28;20543;-74
2021/06/09 08:59:38;;;;;;;20.10;13.90;;;26.70;99.90;;;;;;5037168;28;20535;-74
2021/06/09 09:02:04;;;;;;;15.67;12.40;;;28.00;99.90;;;;;;5036935;28;20554;-74
2021/06/09 09:04:33;;;;;;;14.73;13.20;;;28.50;98.10;;;;;;5037378;28;20901;-74
2021/06/09 09:07:00;;;;;;;16.40;12.87;;;29.30;96.50;;;;;;5037565;28;20479;-74
2021/06/09 09:09:27;;;;;;;19.37;15.00;;;29.70;94.90;;;;;;5037018;28;20446;-74
2021/06/09 09:11:53;;;;;;;15.47;11.97;;;29.10;94.00;;;;;;5037100;28;20528;-74
2021/06/09 09:14:20;;;;;;;14.70;13.07;;;30.10;94.20;;;;;;5037453;28;20533;-74
2021/06/09 09:17:04;;;;;;;16.80;13.40;;;31.50;90.70;;;;;;5037372;28;20443;-74
2021/06/09 09:19:33;;;;;;;16.17;13.87;;;31.50;86.10;;;;;;5036448;28;20450;-74
2021/06/09 09:22:00;;;;;;;16.33;13.83;;;31.30;85.10;;;;;;5036224;28;20596;-74
2021/06/09 09:24:42;;;;;;;15.27;13.13;;;31.40;83.70;;;;;;5035907;28;20568;-74
2021/06/09 09:27:10;;;;;;;15.17;13.27;;;31.60;82.80;;;;;;5036753;28;20502;-74
2021/06/09 09:29:37;;;;;;;14.60;12.80;;;31.20;83.10;;;;;;5036477;28;20453;-74
2021/06/09 09:32:07;;;;;;;16.17;13.97;;;30.80;84.10;;;;;;5036588;28;20497;-74
2021/06/09 09:34:40;;;;;;;15.00;12.03;;;30.40;86.10;;;;;;5037044;28;20433;-74
2021/06/09 09:37:13;;;;;;;14.80;13.20;;;31.50;85.70;;;;;;5035985;28;20482;-74
2021/06/09 09:39:40;;;;;;;15.20;13.33;;;32.40;78.90;;;;;;5036451;28;20443;-74
2021/06/09 09:42:26;;;;;;;16.03;12.53;;;32.40;73.90;;;;;;5036404;28;20557;-74
2021/06/09 09:44:52;;;;;;;15.60;13.80;;;32.00;76.60;;;;;;5036067;28;20493;-74
2021/06/09 09:47:23;;;;;;;16.00;13.67;;;32.40;75.60;;;;;;5035954;28;20508;-74
2021/06/09 09:49:50;;;;;;;16.73;12.30;;;31.90;74.60;;;;;;5036680;28;20444;-73
2021/06/09 09:52:17;;;;;;;14.40;12.50;;;31.50;79.00;;;;;;5036775;28;20508;-74
2021/06/09 09:54:44;;;;;;;15.57;13.60;;;32.20;77.80;;;;;;5036354;28;20478;-74
2021/06/09 09:57:12;;;;;;;17.70;14.57;;;33.00;71.80;;;;;;5035704;28;20483;-74
2021/06/09 09:59:40;;;;;;;15.97;14.13;;;33.70;68.30;;;;;;5036585;28;20447;-74
2021/06/09 10:02:16;;;;;;;12.67;11.33;;;32.90;69.90;;;;;;5036724;28;20545;-74
2021/06/09 10:04:48;;;;;;;16.27;13.20;;;32.80;73.20;;;;;;5036064;28;20501;-74
2021/06/09 10:07:15;;;;;;;14.23;12.73;;;32.80;71.00;;;;;;5035960;28;20538;-74
2021/06/09 10:09:43;;;;;;;13.47;12.07;;;33.00;70.90;;;;;;5036151;28;20925;-74
2021/06/09 10:12:11;;;;;;;14.90;13.40;;;33.40;68.40;;;;;;5034543;28;20474;-74
2021/06/09 10:14:41;;;;;;;15.63;13.90;;;34.30;64.40;;;;;;5035534;28;20501;-74
2021/06/09 10:17:09;;;;;;;15.10;13.40;;;35.00;62.60;;;;;;5035182;28;20459;-74
2021/06/09 10:19:37;;;;;;;15.97;14.27;;;34.80;61.10;;;;;;5036106;28;20530;-74
2021/06/09 10:22:07;;;;;;;16.73;14.30;;;33.90;65.40;;;;;;5035661;28;20462;-74
2021/06/09 10:24:46;;;;;;;17.10;14.60;;;33.40;64.60;;;;;;5036081;28;20545;-74
2021/06/09 10:27:13;;;;;;;19.20;15.53;;;32.50;66.90;;;;;;5036110;28;20545;-74
2021/06/09 10:29:39;;;;;;;16.37;14.43;;;32.10;68.30;;;;;;5036727;28;20537;-74
2021/06/09 10:32:08;;;;;;;15.50;13.57;;;32.20;69.50;;;;;;5035084;28;20482;-74
2021/06/09 10:34:36;;;;;;;13.40;12.00;;;32.00;69.30;;;;;;5035904;28;20492;-74
2021/06/09 10:37:07;;;;;;;13.90;12.40;;;31.80;73.10;;;;;;5035432;28;20482;-74
2021/06/09 10:39:36;;;;;;;15.90;13.93;;;31.70;71.80;;;;;;5035378;28;20514;-74
2021/06/09 10:42:05;;;;;;;18.00;14.30;;;31.10;72.60;;;;;;5035609;28;21011;-74
2021/06/09 10:44:33;;;;;;;13.60;12.13;;;30.20;75.40;;;;;;5035677;28;20665;-74
2021/06/09 10:47:01;;;;;;;17.30;13.40;;;29.60;78.80;;;;;;5035038;28;20517;-74
2021/06/09 10:49:32;;;;;;;14.47;12.00;;;29.20;80.80;;;;;;5035265;28;20497;-74
2021/06/09 10:52:00;;;;;;;14.43;11.60;;;28.80;84.70;;;;;;5034692;28;20841;-74
2021/06/09 10:54:27;;;;;;;14.90;12.57;;;28.60;86.40;;;;;;5034298;28;21005;-74
2021/06/09 10:56:55;;;;;;;12.90;11.30;;;28.20;87.30;;;;;;5035501;28;20548;-74
2021/06/09 10:59:25;;;;;;;14.37;12.67;;;28.00;86.10;;;;;;5034782;28;20534;-74
2021/06/09 11:01:57;;;;;;;13.60;12.20;;;27.80;86.40;;;;;;5034454;28;20901;-73
2021/06/09 11:04:25;;;;;;;13.63;11.57;;;27.70;86.80;;;;;;5034744;28;20525;-74
2021/06/09 11:06:53;;;;;;;14.07;11.57;;;27.60;88.20;;;;;;5034971;28;20446;-74
2021/06/09 11:09:24;;;;;;;14.23;12.10;;;27.30;90.00;;;;;;5034812;28;20930;-73
2021/06/09 11:12:32;;;;;;;15.80;12.20;;;27.10;91.20;;;;;;5034281;28;20561;-73
2021/06/09 11:15:07;;;;;;;15.43;12.43;;;27.10;90.10;;;;;;5026450;28;20530;-74
2021/06/09 11:17:42;;;;;;;12.87;11.40;;;27.30;90.30;;;;;;5034792;28;20912;-74
2021/06/09 11:20:24;;;;;;;13.97;11.60;;;27.30;90.90;;;;;;5033928;28;21028;-74
2021/06/09 11:22:51;;;;;;;13.40;11.10;;;27.40;90.20;;;;;;5034841;28;20541;-74
2021/06/09 11:25:22;;;;;;;13.93;10.93;;;27.50;90.20;;;;;;5038472;28;20498;-74
2021/06/09 11:27:58;;;;;;;12.50;10.97;;;27.60;90.00;;;;;;5038370;28;20538;-74
2021/06/09 11:30:45;;;;;;;12.37;11.07;;;27.70;90.50;;;;;;5038044;28;20446;-74
2021/06/09 11:33:29;;;;;;;12.20;10.70;;;27.60;90.10;;;;;;5037959;28;20566;-74
2021/06/09 11:35:57;;;;;;;11.67;10.30;;;27.70;89.60;;;;;;5038229;28;20602;-74
2021/06/09 11:38:26;;;;;;;13.63;10.93;;;27.90;88.40;;;;;;5038773;28;20822;-74
2021/06/09 11:40:56;;;;;;;12.63;10.47;;;28.10;89.40;;;;;;5038200;28;20542;-74
2021/06/09 11:43:26;;;;;;;11.43;9.60;;;27.80;87.90;;;;;;5038388;28;20501;-73
2021/06/09 11:45:57;;;;;;;8.03;7.23;;;27.40;83.40;;;;;;5037837;28;20489;-74
2021/06/09 11:48:25;;;;;;;8.00;7.20;;;27.10;78.50;;;;;;5038043;28;20584;-74
2021/06/09 11:50:55;;;;;;;10.07;9.10;;;27.00;82.40;;;;;;5037474;28;20509;-74
2021/06/09 11:53:36;;;;;;;10.30;9.20;;;27.00;84.80;;;;;;5037374;28;20462;-74
2021/06/09 11:56:19;;;;;;;10.90;9.07;;;27.20;86.90;;;;;;5037710;28;20446;-73
2021/06/09 11:58:47;;;;;;;8.07;7.27;;;27.00;84.70;;;;;;5037233;28;20431;-73
2021/06/09 12:01:17;;;;;;;10.23;7.90;;;26.50;81.50;;;;;;5037584;28;20442;-74
2021/06/09 12:03:44;;;;;;;9.90;8.57;;;26.30;86.00;;;;;;5037326;28;20473;-74
2021/06/09 12:06:16;;;;;;;10.73;9.63;;;26.30;83.70;;;;;;5038290;28;20512;-73
2021/06/09 12:08:43;;;;;;;10.10;8.10;;;26.00;88.10;;;;;;5038952;28;20438;-73
2021/06/09 12:11:09;;;;;;;10.33;8.57;;;25.80;85.80;;;;;;5037847;28;20470;-74
2021/06/09 12:13:36;;;;;;;12.37;10.50;;;25.60;88.50;;;;;;5038955;28;20519;-73
2021/06/09 12:16:10;;;;;;;11.40;9.53;;;25.60;90.90;;;;;;5038538;28;20455;-73
2021/06/09 12:18:38;;;;;;;12.00;10.50;;;25.40;92.90;;;;;;5037883;28;20429;-73
2021/06/09 12:21:07;;;;;;;13.63;10.67;;;25.50;94.10;;;;;;5037550;28;20450;-73
2021/06/09 12:23:34;;;;;;;14.00;11.30;;;25.60;95.50;;;;;;5037978;28;20462;-73
2021/06/09 12:26:01;;;;;;;11.13;9.70;;;25.70;96.10;;;;;;5038326;28;20525;-74
2021/06/09 12:28:28;;;;;;;14.63;10.10;;;25.90;94.60;;;;;;5037997;28;20530;-73
2021/06/09 12:30:57;;;;;;;12.63;10.30;;;25.90;94.50;;;;;;5036853;28;20533;-74
2021/06/09 12:33:39;;;;;;;16.57;12.07;;;26.00;95.00;;;;;;5037125;28;20498;-73
2021/06/09 12:36:11;;;;;;;11.67;10.33;;;25.90;94.80;;;;;;5036419;28;20477;-73
2021/06/09 12:38:38;;;;;;;11.90;10.27;;;25.90;96.60;;;;;;5037122;28;20453;-74